sensor_id;sensor_type;location;lat;lon;timestamp;P1;durP1;ratioP1;P2;durP2;ratioP2
19173;SDS011;9719;49.322;8.536;2022-10-23T00:04:43;2.83;;;1.88;;
19173;SDS011;9719;49.322;8.536;2022-10-23T00:09:46;2.33;;;2.13;;
19173;SDS011;9719;49.322;8.536;2022-10-23T00:14:48;2.10;;;1.90;;
19173;SDS011;9719;49.322;8.536;2022-10-23T00:19:51;8.95;;;2.17;;
19173;SDS011;9719;49.322;8.536;2022-10-23T00:24:53;3.97;;;1.90;;
19173;SDS011;9719;49.322;8.536;2022-10-23T00:29:55;3.55;;;1.80;;
19173;SDS011;9719;49.322;8.536;2022-10-23T00:34:58;1.70;;;1.40;;
19173;SDS011;9719;49.322;8.536;2022-10-23T00:40:00;2.30;;;1.92;;
19173;SDS011;9719;49.322;8.536;2022-10-23T00:45:12;2.72;;;1.90;;
19173;SDS011;9719;49.322;8.536;2022-10-23T00:50:18;1.75;;;1.50;;
19173;SDS011;9719;49.322;8.536;2022-10-23T00:55:23;3.65;;;2.05;;
19173;SDS011;9719;49.322;8.536;2022-10-23T01:00:28;4.07;;;1.50;;
19173;SDS011;9719;49.322;8.536;2022-10-23T01:05:34;2.58;;;1.65;;
19173;SDS011;9719;49.322;8.536;2022-10-23T01:10:42;2.33;;;1.52;;
19173;SDS011;9719;49.322;8.536;2022-10-23T01:15:48;3.20;;;2.70;;
19173;SDS011;9719;49.322;8.536;2022-10-23T01:21:00;7.78;;;2.45;;
19173;SDS011;9719;49.322;8.536;2022-10-23T01:26:16;4.75;;;2.00;;
19173;SDS011;9719;49.322;8.536;2022-10-23T01:31:29;4.50;;;2.55;;
19173;SDS011;9719;49.322;8.536;2022-10-23T01:36:35;3.05;;;1.80;;
19173;SDS011;9719;49.322;8.536;2022-10-23T01:41:42;1.85;;;1.73;;
19173;SDS011;9719;49.322;8.536;2022-10-23T01:46:49;5.38;;;1.75;;
19173;SDS011;9719;49.322;8.536;2022-10-23T01:51:53;5.50;;;1.95;;
19173;SDS011;9719;49.322;8.536;2022-10-23T01:56:59;2.45;;;2.22;;
19173;SDS011;9719;49.322;8.536;2022-10-23T02:02:05;2.22;;;1.70;;
19173;SDS011;9719;49.322;8.536;2022-10-23T02:07:09;5.22;;;2.53;;
19173;SDS011;9719;49.322;8.536;2022-10-23T02:12:12;3.40;;;1.90;;
19173;SDS011;9719;49.322;8.536;2022-10-23T02:17:25;3.67;;;1.80;;
19173;SDS011;9719;49.322;8.536;2022-10-23T02:22:37;5.22;;;2.25;;
19173;SDS011;9719;49.322;8.536;2022-10-23T02:27:46;4.90;;;2.65;;
19173;SDS011;9719;49.322;8.536;2022-10-23T02:32:54;1.73;;;1.60;;
19173;SDS011;9719;49.322;8.536;2022-10-23T02:37:58;1.95;;;1.73;;
19173;SDS011;9719;49.322;8.536;2022-10-23T02:43:02;3.90;;;1.73;;
19173;SDS011;9719;49.322;8.536;2022-10-23T02:48:11;2.67;;;2.00;;
19173;SDS011;9719;49.322;8.536;2022-10-23T02:53:20;2.85;;;1.73;;
19173;SDS011;9719;49.322;8.536;2022-10-23T02:58:31;4.85;;;1.73;;
19173;SDS011;9719;49.322;8.536;2022-10-23T03:03:40;1.80;;;1.52;;
19173;SDS011;9719;49.322;8.536;2022-10-23T03:08:48;2.40;;;1.88;;
19173;SDS011;9719;49.322;8.536;2022-10-23T03:13:52;3.05;;;1.80;;
19173;SDS011;9719;49.322;8.536;2022-10-23T03:18:55;4.28;;;2.40;;
19173;SDS011;9719;49.322;8.536;2022-10-23T03:23:57;3.83;;;2.15;;
19173;SDS011;9719;49.322;8.536;2022-10-23T03:28:59;1.92;;;1.73;;
19173;SDS011;9719;49.322;8.536;2022-10-23T03:34:03;2.70;;;2.47;;
19173;SDS011;9719;49.322;8.536;2022-10-23T03:39:09;2.88;;;1.30;;
19173;SDS011;9719;49.322;8.536;2022-10-23T03:44:11;2.88;;;2.00;;
19173;SDS011;9719;49.322;8.536;2022-10-23T03:49:14;7.95;;;3.22;;
19173;SDS011;9719;49.322;8.536;2022-10-23T03:54:17;3.20;;;1.70;;
19173;SDS011;9719;49.322;8.536;2022-10-23T03:59:20;2.08;;;1.98;;
19173;SDS011;9719;49.322;8.536;2022-10-23T04:04:24;2.75;;;2.35;;
19173;SDS011;9719;49.322;8.536;2022-10-23T04:09:26;3.25;;;2.17;;
19173;SDS011;9719;49.322;8.536;2022-10-23T04:14:28;5.97;;;2.35;;
19173;SDS011;9719;49.322;8.536;2022-10-23T04:19:32;1.58;;;1.48;;
19173;SDS011;9719;49.322;8.536;2022-10-23T04:24:34;2.78;;;1.90;;
19173;SDS011;9719;49.322;8.536;2022-10-23T04:29:36;3.28;;;1.55;;
19173;SDS011;9719;49.322;8.536;2022-10-23T04:34:39;2.25;;;1.45;;
19173;SDS011;9719;49.322;8.536;2022-10-23T04:39:41;4.88;;;2.08;;
19173;SDS011;9719;49.322;8.536;2022-10-23T04:44:43;2.70;;;1.60;;
19173;SDS011;9719;49.322;8.536;2022-10-23T04:49:47;3.45;;;1.50;;
19173;SDS011;9719;49.322;8.536;2022-10-23T04:54:49;1.60;;;1.50;;
19173;SDS011;9719;49.322;8.536;2022-10-23T04:59:51;2.05;;;1.80;;
19173;SDS011;9719;49.322;8.536;2022-10-23T05:04:54;1.63;;;1.52;;
19173;SDS011;9719;49.322;8.536;2022-10-23T05:09:56;8.45;;;2.00;;
19173;SDS011;9719;49.322;8.536;2022-10-23T05:14:58;2.15;;;1.80;;
19173;SDS011;9719;49.322;8.536;2022-10-23T05:20:03;1.95;;;1.80;;
19173;SDS011;9719;49.322;8.536;2022-10-23T05:25:11;2.83;;;2.00;;
19173;SDS011;9719;49.322;8.536;2022-10-23T05:30:14;2.25;;;1.55;;
19173;SDS011;9719;49.322;8.536;2022-10-23T05:35:18;1.50;;;1.40;;
19173;SDS011;9719;49.322;8.536;2022-10-23T05:40:23;2.47;;;1.60;;
19173;SDS011;9719;49.322;8.536;2022-10-23T05:45:25;1.73;;;1.38;;
19173;SDS011;9719;49.322;8.536;2022-10-23T05:50:28;1.65;;;1.38;;
19173;SDS011;9719;49.322;8.536;2022-10-23T05:55:30;3.40;;;1.83;;
19173;SDS011;9719;49.322;8.536;2022-10-23T06:00:33;5.90;;;1.98;;
19173;SDS011;9719;49.322;8.536;2022-10-23T06:05:36;3.55;;;1.73;;
19173;SDS011;9719;49.322;8.536;2022-10-23T06:10:38;2.75;;;2.17;;
19173;SDS011;9719;49.322;8.536;2022-10-23T06:15:40;2.58;;;2.38;;
19173;SDS011;9719;49.322;8.536;2022-10-23T06:20:43;4.32;;;1.30;;
19173;SDS011;9719;49.322;8.536;2022-10-23T06:25:49;7.63;;;2.55;;
19173;SDS011;9719;49.322;8.536;2022-10-23T06:30:52;2.08;;;1.25;;
19173;SDS011;9719;49.322;8.536;2022-10-23T06:35:56;1.63;;;1.52;;
19173;SDS011;9719;49.322;8.536;2022-10-23T06:40:58;1.25;;;1.20;;
19173;SDS011;9719;49.322;8.536;2022-10-23T06:46:00;2.60;;;1.10;;
19173;SDS011;9719;49.322;8.536;2022-10-23T06:51:05;1.45;;;1.35;;
19173;SDS011;9719;49.322;8.536;2022-10-23T06:56:08;4.93;;;1.65;;
19173;SDS011;9719;49.322;8.536;2022-10-23T07:01:11;3.22;;;1.90;;
19173;SDS011;9719;49.322;8.536;2022-10-23T07:06:16;1.48;;;1.38;;
19173;SDS011;9719;49.322;8.536;2022-10-23T07:11:18;2.50;;;1.92;;
19173;SDS011;9719;49.322;8.536;2022-10-23T07:16:21;2.30;;;1.55;;
19173;SDS011;9719;49.322;8.536;2022-10-23T07:21:25;1.83;;;1.20;;
19173;SDS011;9719;49.322;8.536;2022-10-23T07:26:28;2.75;;;1.20;;
19173;SDS011;9719;49.322;8.536;2022-10-23T07:31:32;2.92;;;1.65;;
19173;SDS011;9719;49.322;8.536;2022-10-23T07:36:35;4.65;;;1.40;;
19173;SDS011;9719;49.322;8.536;2022-10-23T07:41:37;8.32;;;2.70;;
19173;SDS011;9719;49.322;8.536;2022-10-23T07:46:39;1.73;;;1.27;;
19173;SDS011;9719;49.322;8.536;2022-10-23T07:51:43;3.60;;;1.88;;
19173;SDS011;9719;49.322;8.536;2022-10-23T07:56:45;3.25;;;1.90;;
19173;SDS011;9719;49.322;8.536;2022-10-23T08:01:47;2.45;;;2.10;;
19173;SDS011;9719;49.322;8.536;2022-10-23T08:06:50;1.50;;;1.40;;
19173;SDS011;9719;49.322;8.536;2022-10-23T08:11:52;1.98;;;1.45;;
19173;SDS011;9719;49.322;8.536;2022-10-23T08:16:54;1.65;;;1.10;;
19173;SDS011;9719;49.322;8.536;2022-10-23T08:21:58;1.77;;;1.25;;
19173;SDS011;9719;49.322;8.536;2022-10-23T08:27:00;0.95;;;0.93;;
19173;SDS011;9719;49.322;8.536;2022-10-23T08:32:02;3.40;;;1.10;;
19173;SDS011;9719;49.322;8.536;2022-10-23T08:37:05;2.10;;;0.80;;
19173;SDS011;9719;49.322;8.536;2022-10-23T08:42:14;3.42;;;1.00;;
19173;SDS011;9719;49.322;8.536;2022-10-23T08:47:22;5.07;;;1.75;;
19173;SDS011;9719;49.322;8.536;2022-10-23T08:52:32;1.95;;;1.00;;
19173;SDS011;9719;49.322;8.536;2022-10-23T08:57:42;3.53;;;1.00;;
19173;SDS011;9719;49.322;8.536;2022-10-23T09:02:50;1.02;;;0.93;;
19173;SDS011;9719;49.322;8.536;2022-10-23T09:07:58;1.30;;;1.00;;
19173;SDS011;9719;49.322;8.536;2022-10-23T09:13:14;1.35;;;0.98;;
19173;SDS011;9719;49.322;8.536;2022-10-23T09:18:25;2.28;;;1.23;;
19173;SDS011;9719;49.322;8.536;2022-10-23T09:23:29;0.77;;;0.77;;
19173;SDS011;9719;49.322;8.536;2022-10-23T09:28:31;1.80;;;0.90;;
19173;SDS011;9719;49.322;8.536;2022-10-23T09:33:51;0.93;;;0.70;;
19173;SDS011;9719;49.322;8.536;2022-10-23T09:38:56;6.65;;;1.23;;
19173;SDS011;9719;49.322;8.536;2022-10-23T09:44:00;1.05;;;0.80;;
19173;SDS011;9719;49.322;8.536;2022-10-23T09:49:03;1.35;;;1.25;;
19173;SDS011;9719;49.322;8.536;2022-10-23T09:54:10;2.30;;;1.25;;
19173;SDS011;9719;49.322;8.536;2022-10-23T09:59:20;1.77;;;1.25;;
19173;SDS011;9719;49.322;8.536;2022-10-23T10:04:35;1.50;;;0.90;;
19173;SDS011;9719;49.322;8.536;2022-10-23T10:09:39;1.17;;;0.70;;
19173;SDS011;9719;49.322;8.536;2022-10-23T10:14:44;0.90;;;0.75;;
19173;SDS011;9719;49.322;8.536;2022-10-23T10:25:28;1.58;;;0.77;;
19173;SDS011;9719;49.322;8.536;2022-10-23T10:30:39;0.93;;;0.75;;
19173;SDS011;9719;49.322;8.536;2022-10-23T10:35:51;2.60;;;0.85;;
19173;SDS011;9719;49.322;8.536;2022-10-23T10:46:23;2.55;;;1.13;;
19173;SDS011;9719;49.322;8.536;2022-10-23T10:51:35;1.90;;;1.02;;
19173;SDS011;9719;49.322;8.536;2022-10-23T10:56:44;1.00;;;0.90;;
19173;SDS011;9719;49.322;8.536;2022-10-23T11:01:49;5.35;;;0.60;;
19173;SDS011;9719;49.322;8.536;2022-10-23T11:06:56;1.08;;;0.80;;
19173;SDS011;9719;49.322;8.536;2022-10-23T11:12:01;2.20;;;0.70;;
19173;SDS011;9719;49.322;8.536;2022-10-23T11:17:04;1.98;;;0.60;;
19173;SDS011;9719;49.322;8.536;2022-10-23T11:22:12;1.02;;;0.80;;
19173;SDS011;9719;49.322;8.536;2022-10-23T11:27:26;0.98;;;0.90;;
19173;SDS011;9719;49.322;8.536;2022-10-23T11:32:43;1.20;;;0.75;;
19173;SDS011;9719;49.322;8.536;2022-10-23T11:37:57;0.80;;;0.80;;
19173;SDS011;9719;49.322;8.536;2022-10-23T11:43:02;1.08;;;0.82;;
19173;SDS011;9719;49.322;8.536;2022-10-23T11:48:17;1.73;;;0.65;;
19173;SDS011;9719;49.322;8.536;2022-10-23T11:53:23;1.20;;;1.10;;
19173;SDS011;9719;49.322;8.536;2022-10-23T11:58:38;0.85;;;0.65;;
19173;SDS011;9719;49.322;8.536;2022-10-23T12:03:47;1.52;;;1.20;;
19173;SDS011;9719;49.322;8.536;2022-10-23T12:08:54;2.65;;;0.85;;
19173;SDS011;9719;49.322;8.536;2022-10-23T12:14:01;0.57;;;0.50;;
19173;SDS011;9719;49.322;8.536;2022-10-23T12:19:12;0.90;;;0.60;;
19173;SDS011;9719;49.322;8.536;2022-10-23T12:24:25;0.93;;;0.70;;
19173;SDS011;9719;49.322;8.536;2022-10-23T12:30:02;3.33;;;0.70;;
19173;SDS011;9719;49.322;8.536;2022-10-23T12:35:23;1.10;;;0.65;;
19173;SDS011;9719;49.322;8.536;2022-10-23T12:40:36;1.05;;;0.95;;
19173;SDS011;9719;49.322;8.536;2022-10-23T12:45:40;2.05;;;0.90;;
19173;SDS011;9719;49.322;8.536;2022-10-23T12:50:46;1.15;;;1.13;;
19173;SDS011;9719;49.322;8.536;2022-10-23T12:55:52;0.60;;;0.50;;
19173;SDS011;9719;49.322;8.536;2022-10-23T13:00:59;2.67;;;0.60;;
19173;SDS011;9719;49.322;8.536;2022-10-23T13:06:02;1.17;;;0.50;;
19173;SDS011;9719;49.322;8.536;2022-10-23T13:11:05;2.58;;;0.73;;
19173;SDS011;9719;49.322;8.536;2022-10-23T13:16:14;0.50;;;0.50;;
19173;SDS011;9719;49.322;8.536;2022-10-23T13:21:18;2.00;;;0.57;;
19173;SDS011;9719;49.322;8.536;2022-10-23T13:26:23;2.38;;;0.47;;
19173;SDS011;9719;49.322;8.536;2022-10-23T13:31:32;5.75;;;1.38;;
19173;SDS011;9719;49.322;8.536;2022-10-23T13:36:34;1.13;;;0.80;;
19173;SDS011;9719;49.322;8.536;2022-10-23T13:41:39;4.38;;;0.65;;
19173;SDS011;9719;49.322;8.536;2022-10-23T13:46:43;2.38;;;0.50;;
19173;SDS011;9719;49.322;8.536;2022-10-23T13:51:48;1.42;;;0.60;;
19173;SDS011;9719;49.322;8.536;2022-10-23T13:56:52;0.70;;;0.70;;
19173;SDS011;9719;49.322;8.536;2022-10-23T14:01:56;1.85;;;0.90;;
19173;SDS011;9719;49.322;8.536;2022-10-23T14:06:58;0.60;;;0.60;;
19173;SDS011;9719;49.322;8.536;2022-10-23T14:12:00;1.05;;;0.80;;
19173;SDS011;9719;49.322;8.536;2022-10-23T14:17:03;3.95;;;1.17;;
19173;SDS011;9719;49.322;8.536;2022-10-23T14:22:05;3.10;;;1.63;;
19173;SDS011;9719;49.322;8.536;2022-10-23T14:27:07;0.60;;;0.60;;
19173;SDS011;9719;49.322;8.536;2022-10-23T14:32:12;2.45;;;0.80;;
19173;SDS011;9719;49.322;8.536;2022-10-23T14:37:14;2.40;;;0.90;;
19173;SDS011;9719;49.322;8.536;2022-10-23T14:42:17;1.95;;;0.68;;
19173;SDS011;9719;49.322;8.536;2022-10-23T14:47:21;0.50;;;0.50;;
19173;SDS011;9719;49.322;8.536;2022-10-23T14:52:24;0.80;;;0.80;;
19173;SDS011;9719;49.322;8.536;2022-10-23T14:57:26;1.52;;;0.85;;
19173;SDS011;9719;49.322;8.536;2022-10-23T15:02:30;1.73;;;0.90;;
19173;SDS011;9719;49.322;8.536;2022-10-23T15:07:33;1.02;;;0.80;;
19173;SDS011;9719;49.322;8.536;2022-10-23T15:12:35;1.80;;;1.10;;
19173;SDS011;9719;49.322;8.536;2022-10-23T15:17:39;1.60;;;0.90;;
19173;SDS011;9719;49.322;8.536;2022-10-23T15:22:42;2.28;;;0.80;;
19173;SDS011;9719;49.322;8.536;2022-10-23T15:27:44;1.90;;;0.90;;
19173;SDS011;9719;49.322;8.536;2022-10-23T15:32:49;2.25;;;0.90;;
19173;SDS011;9719;49.322;8.536;2022-10-23T15:37:51;1.50;;;1.00;;
19173;SDS011;9719;49.322;8.536;2022-10-23T15:42:58;2.03;;;1.00;;
19173;SDS011;9719;49.322;8.536;2022-10-23T15:48:11;1.35;;;0.90;;
19173;SDS011;9719;49.322;8.536;2022-10-23T15:53:13;2.35;;;0.80;;
19173;SDS011;9719;49.322;8.536;2022-10-23T15:58:15;3.10;;;2.65;;
19173;SDS011;9719;49.322;8.536;2022-10-23T16:03:19;1.38;;;1.02;;
19173;SDS011;9719;49.322;8.536;2022-10-23T16:08:21;2.03;;;1.10;;
19173;SDS011;9719;49.322;8.536;2022-10-23T16:13:25;1.67;;;1.10;;
19173;SDS011;9719;49.322;8.536;2022-10-23T16:18:28;2.65;;;1.35;;
19173;SDS011;9719;49.322;8.536;2022-10-23T16:23:30;3.40;;;1.50;;
19173;SDS011;9719;49.322;8.536;2022-10-23T16:28:33;1.63;;;1.15;;
19173;SDS011;9719;49.322;8.536;2022-10-23T16:33:38;4.32;;;1.05;;
19173;SDS011;9719;49.322;8.536;2022-10-23T16:38:40;1.52;;;0.93;;
19173;SDS011;9719;49.322;8.536;2022-10-23T16:43:42;4.07;;;2.30;;
19173;SDS011;9719;49.322;8.536;2022-10-23T16:48:45;1.42;;;1.33;;
19173;SDS011;9719;49.322;8.536;2022-10-23T16:53:48;1.52;;;1.23;;
19173;SDS011;9719;49.322;8.536;2022-10-23T16:58:50;4.10;;;1.98;;
19173;SDS011;9719;49.322;8.536;2022-10-23T17:03:53;3.28;;;1.20;;
19173;SDS011;9719;49.322;8.536;2022-10-23T17:08:56;1.98;;;1.50;;
19173;SDS011;9719;49.322;8.536;2022-10-23T17:14:00;1.98;;;1.48;;
19173;SDS011;9719;49.322;8.536;2022-10-23T17:19:05;1.88;;;1.48;;
19173;SDS011;9719;49.322;8.536;2022-10-23T17:24:09;2.45;;;2.03;;
19173;SDS011;9719;49.322;8.536;2022-10-23T17:29:12;2.05;;;1.83;;
19173;SDS011;9719;49.322;8.536;2022-10-23T17:34:17;1.95;;;1.27;;
19173;SDS011;9719;49.322;8.536;2022-10-23T17:39:21;3.42;;;1.13;;
19173;SDS011;9719;49.322;8.536;2022-10-23T17:44:24;3.42;;;2.47;;
19173;SDS011;9719;49.322;8.536;2022-10-23T17:49:29;1.85;;;1.50;;
19173;SDS011;9719;49.322;8.536;2022-10-23T17:54:31;1.40;;;1.30;;
19173;SDS011;9719;49.322;8.536;2022-10-23T17:59:33;1.67;;;1.35;;
19173;SDS011;9719;49.322;8.536;2022-10-23T18:04:38;2.90;;;1.90;;
19173;SDS011;9719;49.322;8.536;2022-10-23T18:09:40;3.40;;;1.80;;
19173;SDS011;9719;49.322;8.536;2022-10-23T18:14:42;2.60;;;2.38;;
19173;SDS011;9719;49.322;8.536;2022-10-23T18:19:45;3.10;;;2.58;;
19173;SDS011;9719;49.322;8.536;2022-10-23T18:24:51;3.67;;;2.13;;
19173;SDS011;9719;49.322;8.536;2022-10-23T18:29:53;4.22;;;2.00;;
19173;SDS011;9719;49.322;8.536;2022-10-23T18:34:56;4.15;;;2.70;;
19173;SDS011;9719;49.322;8.536;2022-10-23T18:39:58;9.30;;;3.05;;
19173;SDS011;9719;49.322;8.536;2022-10-23T18:45:00;5.03;;;2.58;;
19173;SDS011;9719;49.322;8.536;2022-10-23T18:50:05;5.30;;;2.72;;
19173;SDS011;9719;49.322;8.536;2022-10-23T18:55:08;3.78;;;2.65;;
19173;SDS011;9719;49.322;8.536;2022-10-23T19:00:11;6.10;;;2.28;;
19173;SDS011;9719;49.322;8.536;2022-10-23T19:05:16;4.00;;;2.88;;
19173;SDS011;9719;49.322;8.536;2022-10-23T19:10:18;3.35;;;2.65;;
19173;SDS011;9719;49.322;8.536;2022-10-23T19:15:22;5.78;;;2.80;;
19173;SDS011;9719;49.322;8.536;2022-10-23T19:20:25;3.63;;;2.15;;
19173;SDS011;9719;49.322;8.536;2022-10-23T19:25:29;3.22;;;2.17;;
19173;SDS011;9719;49.322;8.536;2022-10-23T19:30:33;4.53;;;1.90;;
19173;SDS011;9719;49.322;8.536;2022-10-23T19:35:37;4.13;;;2.40;;
19173;SDS011;9719;49.322;8.536;2022-10-23T19:40:39;5.47;;;2.38;;
19173;SDS011;9719;49.322;8.536;2022-10-23T19:45:41;4.75;;;2.75;;
19173;SDS011;9719;49.322;8.536;2022-10-23T19:50:45;3.92;;;2.25;;
19173;SDS011;9719;49.322;8.536;2022-10-23T19:55:47;3.60;;;2.00;;
19173;SDS011;9719;49.322;8.536;2022-10-23T20:00:49;2.70;;;1.88;;
19173;SDS011;9719;49.322;8.536;2022-10-23T20:05:52;3.78;;;1.92;;
19173;SDS011;9719;49.322;8.536;2022-10-23T20:10:54;2.85;;;1.92;;
19173;SDS011;9719;49.322;8.536;2022-10-23T20:15:56;18.15;;;3.28;;
19173;SDS011;9719;49.322;8.536;2022-10-23T20:21:00;3.95;;;1.80;;
19173;SDS011;9719;49.322;8.536;2022-10-23T20:26:03;3.53;;;2.45;;
19173;SDS011;9719;49.322;8.536;2022-10-23T20:31:06;3.60;;;1.98;;
19173;SDS011;9719;49.322;8.536;2022-10-23T20:36:19;2.92;;;1.85;;
19173;SDS011;9719;49.322;8.536;2022-10-23T20:41:23;10.30;;;2.22;;
19173;SDS011;9719;49.322;8.536;2022-10-23T20:46:27;3.05;;;1.92;;
19173;SDS011;9719;49.322;8.536;2022-10-23T20:51:31;5.07;;;3.15;;
19173;SDS011;9719;49.322;8.536;2022-10-23T20:56:35;3.22;;;2.70;;
19173;SDS011;9719;49.322;8.536;2022-10-23T21:01:38;5.00;;;2.22;;
19173;SDS011;9719;49.322;8.536;2022-10-23T21:06:43;2.80;;;2.50;;
19173;SDS011;9719;49.322;8.536;2022-10-23T21:11:45;3.60;;;1.63;;
19173;SDS011;9719;49.322;8.536;2022-10-23T21:16:47;2.13;;;1.67;;
19173;SDS011;9719;49.322;8.536;2022-10-23T21:21:50;4.03;;;3.40;;
19173;SDS011;9719;49.322;8.536;2022-10-23T21:26:52;3.58;;;1.73;;
19173;SDS011;9719;49.322;8.536;2022-10-23T21:31:55;4.13;;;2.72;;
19173;SDS011;9719;49.322;8.536;2022-10-23T21:37:02;2.85;;;2.35;;
19173;SDS011;9719;49.322;8.536;2022-10-23T21:42:05;4.07;;;2.83;;
19173;SDS011;9719;49.322;8.536;2022-10-23T21:47:07;6.40;;;2.10;;
19173;SDS011;9719;49.322;8.536;2022-10-23T21:52:10;5.88;;;2.00;;
19173;SDS011;9719;49.322;8.536;2022-10-23T21:57:12;5.32;;;2.05;;
19173;SDS011;9719;49.322;8.536;2022-10-23T22:02:15;2.13;;;1.90;;
19173;SDS011;9719;49.322;8.536;2022-10-23T22:07:18;4.75;;;2.00;;
19173;SDS011;9719;49.322;8.536;2022-10-23T22:12:20;3.17;;;2.38;;
19173;SDS011;9719;49.322;8.536;2022-10-23T22:17:22;5.10;;;2.00;;
19173;SDS011;9719;49.322;8.536;2022-10-23T22:22:26;3.15;;;1.77;;
19173;SDS011;9719;49.322;8.536;2022-10-23T22:27:28;7.70;;;2.60;;
19173;SDS011;9719;49.322;8.536;2022-10-23T22:32:30;5.28;;;1.80;;
19173;SDS011;9719;49.322;8.536;2022-10-23T22:37:33;4.55;;;1.95;;
19173;SDS011;9719;49.322;8.536;2022-10-23T22:42:35;5.13;;;2.58;;
19173;SDS011;9719;49.322;8.536;2022-10-23T22:47:38;5.53;;;2.20;;
19173;SDS011;9719;49.322;8.536;2022-10-23T22:52:41;5.32;;;2.47;;
19173;SDS011;9719;49.322;8.536;2022-10-23T22:57:43;2.75;;;1.88;;
19173;SDS011;9719;49.322;8.536;2022-10-23T23:02:45;8.07;;;2.80;;
19173;SDS011;9719;49.322;8.536;2022-10-23T23:07:48;6.93;;;3.22;;
19173;SDS011;9719;49.322;8.536;2022-10-23T23:12:50;2.85;;;2.33;;
19173;SDS011;9719;49.322;8.536;2022-10-23T23:17:53;2.75;;;2.10;;
19173;SDS011;9719;49.322;8.536;2022-10-23T23:22:57;4.15;;;2.47;;
19173;SDS011;9719;49.322;8.536;2022-10-23T23:27:59;5.53;;;2.25;;
19173;SDS011;9719;49.322;8.536;2022-10-23T23:33:01;6.13;;;2.58;;
19173;SDS011;9719;49.322;8.536;2022-10-23T23:38:05;5.07;;;2.55;;
19173;SDS011;9719;49.322;8.536;2022-10-23T23:43:07;6.43;;;2.50;;
19173;SDS011;9719;49.322;8.536;2022-10-23T23:48:09;6.00;;;2.55;;
19173;SDS011;9719;49.322;8.536;2022-10-23T23:53:12;5.63;;;2.92;;
19173;SDS011;9719;49.322;8.536;2022-10-23T23:58:14;5.30;;;1.98;;
